WI88 weather

St Clare's Hospital Heliport
Weston, Wisconsin, United States

Public forecast

Using degrees Fahrenheit for public forecast. Weather courtesy of forecast.io.

METAR (pilot weather report)

Closest report is Wausau Downtown Airport, 3.0 nm (5.5 km) NW. Retrieved 2019/08/23 17:54 UTC (45 minutes ago):

KAUW 231754Z AUTO VRB03KT 10SM BKN045 19/09 A3026 RMK AO2 SLP251 T01890089 10206 20100 58005

TAF (pilot weather forecast)

Closest forecast is Wausau Downtown Airport, 3.0 nm (5.5 km) NW. Retrieved 2019/08/23 18:22 UTC (17 minutes ago):

TAF KAUW 231720Z 2318/2418 11005KT P6SM SCT050 FM240100 10003KT P6SM SKC FM241500 13007KT P6SM SCT035